createdAt,value
2018-05-15T17:38:45.403Z,19.85
2018-05-15T17:41:14.524Z,15.00
2018-05-15T17:50:04.954Z,19.10
2018-05-15T17:52:35.154Z,33.45
2018-05-15T17:55:05.897Z,20.20
2018-05-15T17:57:36.549Z,20.23
2018-05-15T18:00:05.997Z,17.48
2018-05-15T18:02:36.993Z,26.05
2018-05-15T18:05:06.989Z,18.50
2018-05-15T18:07:37.436Z,24.83
2018-05-15T18:10:11.074Z,27.02
2018-05-15T18:12:43.294Z,19.87
2018-05-15T18:15:27.478Z,23.12
2018-05-15T18:18:18.055Z,19.95
2018-05-15T18:20:47.796Z,21.40
2018-05-15T18:23:17.751Z,20.77
2018-05-15T18:25:50.613Z,22.45
2018-05-15T18:28:22.985Z,27.17
2018-05-15T18:30:56.550Z,21.25
2018-05-15T18:33:26.474Z,20.05
2018-05-15T18:35:58.374Z,26.95
2018-05-15T18:38:29.446Z,22.23
2018-05-15T18:41:00.856Z,21.40
2018-05-15T18:44:01.649Z,16.05
2018-05-15T18:47:00.580Z,18.65
2018-05-15T18:49:59.375Z,18.70
2018-05-15T18:52:29.596Z,29.10
2018-05-15T18:54:58.673Z,19.58
2018-05-15T18:57:27.889Z,28.80
2018-05-15T18:59:57.008Z,21.27
2018-05-15T19:02:26.082Z,23.02
2018-05-15T19:04:56.112Z,25.23
2018-05-15T19:07:25.424Z,21.80
2018-05-15T19:09:56.180Z,23.23
2018-05-15T19:12:25.716Z,25.83
2018-05-15T19:14:54.875Z,23.85
2018-05-15T19:17:24.916Z,21.50
2018-05-15T19:19:54.041Z,22.48
2018-05-15T19:22:23.915Z,20.58
2018-05-15T19:24:56.034Z,23.40
2018-05-15T19:27:25.853Z,20.95
2018-05-15T19:29:56.903Z,24.27
2018-05-15T19:32:31.444Z,28.48
2018-05-15T19:35:02.315Z,24.08
2018-05-15T19:37:34.235Z,29.00
2018-05-15T19:40:08.693Z,18.40
2018-05-15T19:42:39.827Z,21.05
2018-05-15T19:45:10.658Z,18.58
2018-05-15T19:47:43.999Z,22.92
2018-05-15T19:50:16.888Z,23.38
2018-05-15T19:52:51.572Z,20.15
2018-05-15T19:55:22.165Z,16.60
2018-05-15T19:57:51.654Z,15.80
2018-05-15T20:00:22.460Z,23.90
2018-05-15T20:02:53.982Z,22.23
2018-05-15T20:05:23.188Z,17.52
2018-05-15T20:07:58.385Z,21.40
2018-05-15T20:11:03.105Z,22.20
2018-05-15T20:13:40.185Z,32.83
2018-05-15T20:16:13.960Z,21.67
2018-05-15T20:19:52.095Z,18.83
2018-05-15T20:22:36.740Z,27.17
2018-05-15T20:28:26.856Z,24.45
2018-05-15T20:30:57.278Z,24.08
2018-05-15T20:33:29.453Z,21.48
2018-05-15T20:36:00.814Z,20.55
2018-05-15T20:38:31.271Z,16.42
2018-05-15T20:41:00.568Z,17.27
2018-05-15T20:43:31.473Z,20.40
2018-05-15T20:46:00.890Z,18.83
2018-05-15T20:48:30.584Z,20.67
2018-05-15T20:51:00.965Z,15.97
2018-05-15T20:53:33.032Z,11.25
2018-05-15T20:56:03.237Z,14.63
2018-05-15T21:01:08.662Z,7.93
2018-05-15T21:03:38.906Z,7.62
2018-05-15T21:06:08.497Z,7.93
2018-05-15T21:08:41.444Z,7.93
2018-05-15T21:11:11.383Z,11.32
2018-05-15T21:13:43.211Z,11.40
2018-05-15T21:16:13.224Z,10.55
2018-05-15T21:18:45.183Z,11.43
2018-05-15T21:21:15.757Z,10.83
2018-05-15T21:23:45.283Z,10.35
2018-05-15T21:26:18.699Z,12.20
2018-05-15T21:28:48.215Z,15.80
2018-05-15T21:34:09.840Z,22.85
2018-05-15T21:36:39.952Z,29.80
2018-05-15T21:39:15.689Z,24.60
2018-05-15T21:41:45.973Z,40.50
2018-05-15T21:44:20.173Z,47.57
2018-05-15T21:46:50.130Z,51.67
2018-05-15T21:49:19.551Z,60.77
2018-05-15T21:51:51.410Z,64.37
2018-05-15T21:54:35.116Z,67.50
2018-05-15T21:57:06.469Z,69.83
2018-05-15T21:59:39.142Z,69.90
2018-05-15T22:05:23.849Z,30.40
2018-05-15T22:08:15.717Z,30.97
2018-05-15T22:11:24.588Z,42.43
2018-05-15T22:14:37.447Z,47.27
2018-05-15T22:17:50.441Z,56.97
2018-05-15T22:21:06.166Z,39.33
2018-05-15T22:27:23.045Z,37.47
2018-05-15T22:30:21.759Z,23.67
2018-05-15T22:32:53.243Z,24.47
2018-05-15T22:35:28.176Z,20.83
2018-05-15T22:38:00.358Z,20.13
2018-05-15T22:40:29.750Z,24.60
2018-05-15T22:42:59.080Z,24.90
2018-05-15T22:45:28.197Z,21.47
2018-05-15T22:48:00.441Z,21.53
2018-05-15T22:50:34.461Z,22.17
2018-05-15T22:53:03.796Z,22.17
2018-05-15T22:55:33.167Z,27.13
2018-05-15T22:58:04.568Z,34.37
2018-05-15T23:00:34.702Z,34.27
2018-05-15T23:03:04.181Z,29.97
2018-05-15T23:05:33.326Z,35.40
2018-05-15T23:08:07.215Z,31.63
2018-05-15T23:10:36.385Z,38.10
2018-05-15T23:13:05.791Z,46.23
2018-05-15T23:15:34.935Z,42.53
2018-05-15T23:18:05.447Z,58.80
2018-05-15T23:20:35.783Z,63.10
2018-05-15T23:23:09.393Z,85.33
2018-05-15T23:25:41.967Z,83.23
2018-05-15T23:28:11.920Z,74.60
2018-05-15T23:30:42.551Z,74.70
2018-05-15T23:33:12.114Z,81.07
2018-05-15T23:35:41.722Z,110.77
2018-05-15T23:38:10.861Z,90.37
2018-05-15T23:40:40.855Z,57.33
2018-05-15T23:43:10.265Z,77.93
2018-05-15T23:45:40.267Z,109.30
2018-05-15T23:48:13.061Z,83.27
2018-05-15T23:50:48.346Z,58.10
2018-05-15T23:53:17.730Z,53.33
2018-05-15T23:55:47.501Z,55.70
2018-05-15T23:58:18.155Z,36.83
